Kahoka, Missouri
Current Conditions -  °F | °C
As of 8:15 PM on Sunday 25 Jan 2015 (Local Time) from KEOK Reporting Station
Few Clouds Few Clouds  
Wind Chill: 18°   Ceiling: Unl
Heat Index: 27°   Visibility: 10mi
Dew Point: 23°   Wind: 8mph
Humidity: 86%   Direction: 360°N
Pressure: 30.04"   Gusts: NA
Location:  40.42°N, 91.72°W
Report Text: KEOK 260215Z AUTO 36007KT 10SM FEW018 M03/M05 A3004 RMK AO2
Loading
Personal Weather Stations






























Interactive Weather Map New forecast layout! Learn more

10-Day Weather Forecast

Advertisements
Track Severe Weather on mobile